createdAt,value
2022-09-26T00:01:37.843Z,8.40
2022-09-26T00:04:08.951Z,8.40
2022-09-26T00:06:37.336Z,8.40
2022-09-26T00:09:05.627Z,8.40
2022-09-26T00:11:36.046Z,8.40
2022-09-26T00:14:06.880Z,8.40
2022-09-26T00:16:35.274Z,8.40
2022-09-26T00:19:04.199Z,8.50
2022-09-26T00:21:32.723Z,8.60
2022-09-26T00:24:02.032Z,8.60
2022-09-26T00:26:32.222Z,8.60
2022-09-26T00:29:04.533Z,8.70
2022-09-26T00:31:34.790Z,8.70
2022-09-26T00:34:03.440Z,8.80
2022-09-26T00:36:38.165Z,8.80
2022-09-26T00:39:07.800Z,8.80
2022-09-26T00:41:37.135Z,8.90
2022-09-26T00:44:42.047Z,9.00
2022-09-26T00:47:22.273Z,9.00
2022-09-26T00:49:53.734Z,9.10
2022-09-26T00:52:27.562Z,9.10
2022-09-26T00:54:57.820Z,9.10
2022-09-26T00:57:31.041Z,9.10
2022-09-26T01:00:03.799Z,9.10
2022-09-26T01:02:31.886Z,9.10
2022-09-26T01:05:01.064Z,9.10
2022-09-26T01:07:30.173Z,9.10
2022-09-26T01:09:59.040Z,9.10
2022-09-26T01:12:27.587Z,9.10
2022-09-26T01:14:56.705Z,9.10
2022-09-26T01:17:27.453Z,9.10
2022-09-26T01:20:22.096Z,9.20
2022-09-26T01:23:24.345Z,9.20
2022-09-26T01:26:24.023Z,9.20
2022-09-26T01:29:16.761Z,9.20
2022-09-26T01:32:07.657Z,9.10
2022-09-26T01:34:47.210Z,9.10
2022-09-26T01:37:24.207Z,9.10
2022-09-26T01:40:02.585Z,9.10
2022-09-26T01:42:41.789Z,9.10
2022-09-26T01:45:18.541Z,9.30
2022-09-26T01:47:55.649Z,9.30
2022-09-26T01:50:30.837Z,9.30
2022-09-26T01:53:02.359Z,9.30
2022-09-26T01:55:36.924Z,9.30
2022-09-26T01:58:10.065Z,9.30
2022-09-26T02:00:40.866Z,9.20
2022-09-26T02:03:14.524Z,9.20
2022-09-26T02:05:45.552Z,9.20
2022-09-26T02:08:19.447Z,9.20
2022-09-26T02:10:51.061Z,9.40
2022-09-26T02:13:24.719Z,9.20
2022-09-26T02:15:57.192Z,9.20
2022-09-26T02:18:32.774Z,9.30
2022-09-26T02:21:04.006Z,9.30
2022-09-26T02:23:32.229Z,9.30
2022-09-26T02:26:00.356Z,9.40
2022-09-26T02:28:28.665Z,9.40
2022-09-26T02:30:57.370Z,9.50
2022-09-26T02:33:26.699Z,9.50
2022-09-26T02:35:57.745Z,9.40
2022-09-26T02:38:29.187Z,9.70
2022-09-26T02:41:04.830Z,9.70
2022-09-26T02:43:55.525Z,9.50
2022-09-26T02:46:44.002Z,9.60
2022-09-26T02:49:34.759Z,9.60
2022-09-26T02:52:18.438Z,9.60
2022-09-26T02:54:57.260Z,9.60
2022-09-26T02:57:33.559Z,9.60
2022-09-26T03:00:06.624Z,9.60
2022-09-26T03:02:40.193Z,9.60
2022-09-26T03:05:12.883Z,9.40
2022-09-26T03:07:44.788Z,9.60
2022-09-26T03:10:15.076Z,9.60
2022-09-26T03:12:45.540Z,9.60
2022-09-26T03:15:15.486Z,9.50
2022-09-26T03:17:48.013Z,9.60
2022-09-26T03:20:19.526Z,9.60
2022-09-26T03:22:47.655Z,9.60
2022-09-26T03:25:18.513Z,9.60
2022-09-26T03:27:47.406Z,9.60
2022-09-26T03:30:17.628Z,9.60
2022-09-26T03:32:45.625Z,9.70
2022-09-26T03:35:14.105Z,9.70
2022-09-26T03:37:43.606Z,9.70
2022-09-26T03:40:13.568Z,9.80
2022-09-26T03:42:42.160Z,9.90
2022-09-26T03:45:11.476Z,9.90
2022-09-26T03:47:39.449Z,9.90
2022-09-26T03:50:08.218Z,10.00
2022-09-26T03:52:36.804Z,10.00
2022-09-26T03:55:06.936Z,10.00
2022-09-26T03:57:34.884Z,10.00
2022-09-26T04:00:03.890Z,10.10
2022-09-26T04:02:31.937Z,10.10
2022-09-26T04:05:00.084Z,10.10
2022-09-26T04:07:28.302Z,10.00
2022-09-26T04:09:56.274Z,10.20
2022-09-26T04:12:25.744Z,10.20
2022-09-26T04:14:53.979Z,10.20
2022-09-26T04:17:21.970Z,10.00
2022-09-26T04:19:49.950Z,10.10
2022-09-26T04:22:17.914Z,10.20
2022-09-26T04:24:45.858Z,10.30
2022-09-26T04:27:13.901Z,10.20
2022-09-26T04:29:44.155Z,10.30
2022-09-26T04:32:12.785Z,10.30
2022-09-26T04:34:41.049Z,10.30
2022-09-26T04:37:10.063Z,10.20
2022-09-26T04:39:38.072Z,10.20
2022-09-26T04:42:06.205Z,10.30
2022-09-26T04:44:34.177Z,10.30
2022-09-26T04:47:03.888Z,10.30
2022-09-26T04:49:31.867Z,10.40
2022-09-26T04:51:59.915Z,10.40
2022-09-26T04:54:27.880Z,10.40
2022-09-26T04:56:55.879Z,10.40
2022-09-26T04:59:23.845Z,10.40
2022-09-26T05:01:51.935Z,10.50
2022-09-26T05:04:27.267Z,10.60
2022-09-26T05:06:59.167Z,10.50
2022-09-26T05:09:28.292Z,10.50
2022-09-26T05:11:57.893Z,10.50
2022-09-26T05:14:25.914Z,10.50
2022-09-26T05:16:53.913Z,10.50
2022-09-26T05:19:23.591Z,10.50
2022-09-26T05:21:51.630Z,10.50
2022-09-26T05:24:36.781Z,10.50
2022-09-26T05:27:07.215Z,10.50
2022-09-26T05:29:35.385Z,10.50
2022-09-26T05:32:06.092Z,10.50
2022-09-26T05:34:35.559Z,10.50
2022-09-26T05:37:03.512Z,10.50
2022-09-26T05:39:48.912Z,10.50
2022-09-26T05:42:16.871Z,10.60
2022-09-26T05:44:44.903Z,10.60
2022-09-26T05:47:13.245Z,10.60
2022-09-26T05:49:42.668Z,10.70
2022-09-26T05:52:10.671Z,10.70
2022-09-26T05:54:38.653Z,10.70
2022-09-26T05:57:06.589Z,10.80
2022-09-26T05:59:34.645Z,10.90
2022-09-26T06:02:02.887Z,10.90
2022-09-26T06:04:31.663Z,11.00
2022-09-26T06:07:01.039Z,10.80
2022-09-26T06:09:29.084Z,11.00
2022-09-26T06:11:57.250Z,10.80
2022-09-26T06:14:26.417Z,10.90
2022-09-26T06:16:54.445Z,11.00
2022-09-26T06:19:23.241Z,11.10
2022-09-26T06:21:51.582Z,11.10
2022-09-26T06:24:20.931Z,11.10
2022-09-26T06:26:48.938Z,11.20
2022-09-26T06:29:16.955Z,11.30
2022-09-26T06:31:45.079Z,11.30
2022-09-26T06:34:13.923Z,11.20
2022-09-26T06:36:41.932Z,11.30
2022-09-26T06:39:10.101Z,11.40
2022-09-26T06:41:39.609Z,11.40
2022-09-26T06:44:07.617Z,11.50
2022-09-26T06:46:35.637Z,11.60
2022-09-26T06:49:03.765Z,11.60
2022-09-26T06:51:31.908Z,11.70
2022-09-26T06:54:00.390Z,11.80
2022-09-26T06:56:28.380Z,11.90
2022-09-26T06:58:57.800Z,12.00
2022-09-26T07:01:26.005Z,12.10
2022-09-26T07:03:54.410Z,12.30
2022-09-26T07:06:22.666Z,12.20
2022-09-26T07:09:02.366Z,12.20
2022-09-26T07:11:50.405Z,12.20
2022-09-26T07:14:22.264Z,12.30
2022-09-26T07:16:51.978Z,12.30
2022-09-26T07:19:20.273Z,12.30
2022-09-26T07:21:49.607Z,12.40
2022-09-26T07:24:17.876Z,12.60
2022-09-26T07:26:45.922Z,12.60
2022-09-26T07:29:14.247Z,12.80
2022-09-26T07:31:43.996Z,12.80
2022-09-26T07:34:15.851Z,12.80
2022-09-26T07:36:47.319Z,12.80
2022-09-26T07:39:15.663Z,13.00
2022-09-26T07:41:45.965Z,12.80
2022-09-26T07:47:18.089Z,13.10
2022-09-26T07:50:03.666Z,13.30
2022-09-26T07:52:31.835Z,13.50
2022-09-26T07:54:59.948Z,13.90
2022-09-26T07:57:34.245Z,14.30
2022-09-26T08:00:03.075Z,14.70
2022-09-26T08:02:34.676Z,15.00
2022-09-26T08:05:05.063Z,14.90
2022-09-26T08:07:35.325Z,15.00
2022-09-26T08:10:04.174Z,14.90
2022-09-26T08:12:36.283Z,14.80
2022-09-26T08:15:06.224Z,14.70
2022-09-26T08:17:35.722Z,14.60
2022-09-26T08:20:04.337Z,14.40
2022-09-26T08:22:32.530Z,14.20
2022-09-26T08:25:00.766Z,14.20
2022-09-26T08:27:33.513Z,14.10
2022-09-26T08:30:04.166Z,14.00
2022-09-26T08:32:32.418Z,14.00
2022-09-26T08:35:01.889Z,14.00
2022-09-26T08:37:31.114Z,14.10
2022-09-26T08:40:00.775Z,14.30
2022-09-26T08:42:41.800Z,14.30
2022-09-26T08:45:48.927Z,14.40
2022-09-26T08:48:34.101Z,14.60
2022-09-26T08:51:13.609Z,14.50
2022-09-26T08:53:47.699Z,14.50
2022-09-26T08:56:22.207Z,14.60
2022-09-26T08:58:53.522Z,14.60
2022-09-26T09:01:27.579Z,14.80
2022-09-26T09:04:01.180Z,15.00
2022-09-26T09:06:30.705Z,14.90
2022-09-26T09:08:59.278Z,14.90
2022-09-26T09:11:50.775Z,14.90
2022-09-26T09:14:29.595Z,14.80
2022-09-26T09:17:10.108Z,14.60
2022-09-26T09:19:46.892Z,14.40
2022-09-26T09:22:37.623Z,14.20
2022-09-26T09:25:15.747Z,14.10
2022-09-26T09:28:01.252Z,14.00
2022-09-26T09:30:41.303Z,13.90
2022-09-26T09:33:15.854Z,13.90
2022-09-26T09:35:47.953Z,14.00
2022-09-26T09:38:20.236Z,14.10
2022-09-26T09:40:54.167Z,13.90
2022-09-26T09:43:28.685Z,14.00
2022-09-26T09:46:02.964Z,14.00
2022-09-26T09:48:31.926Z,14.00
2022-09-26T09:51:30.020Z,14.00
2022-09-26T09:54:31.595Z,14.10
2022-09-26T09:57:31.567Z,14.20
2022-09-26T10:00:17.114Z,14.30
2022-09-26T10:02:54.877Z,14.40
2022-09-26T10:05:36.206Z,14.50
2022-09-26T10:08:10.821Z,14.60
2022-09-26T10:10:43.178Z,14.60
2022-09-26T10:13:13.023Z,14.60
2022-09-26T10:15:45.741Z,14.50
2022-09-26T10:18:26.423Z,14.40
2022-09-26T10:20:57.420Z,14.40
2022-09-26T10:23:31.360Z,14.30
2022-09-26T10:26:03.588Z,14.40
2022-09-26T10:28:37.948Z,14.40
2022-09-26T10:31:09.038Z,14.50
2022-09-26T10:33:39.843Z,14.50
2022-09-26T10:36:17.824Z,14.50
2022-09-26T10:39:16.000Z,14.60
2022-09-26T10:41:46.292Z,14.60
2022-09-26T10:44:27.476Z,14.60
2022-09-26T10:46:59.347Z,14.40
2022-09-26T10:49:34.836Z,14.50
2022-09-26T10:52:11.684Z,14.40
2022-09-26T10:54:47.079Z,14.30
2022-09-26T10:57:24.318Z,14.20
2022-09-26T10:59:54.929Z,14.00
2022-09-26T11:02:25.429Z,13.90
2022-09-26T11:05:15.589Z,13.80
2022-09-26T11:07:47.236Z,13.80
2022-09-26T11:10:19.117Z,13.80
2022-09-26T11:13:02.348Z,13.90
2022-09-26T11:15:32.042Z,13.80
2022-09-26T11:18:00.363Z,13.70
2022-09-26T11:20:46.862Z,13.60
2022-09-26T11:23:28.602Z,13.50
2022-09-26T11:26:07.785Z,13.50
2022-09-26T11:28:43.074Z,13.40
2022-09-26T11:31:23.682Z,13.10
2022-09-26T11:33:54.187Z,13.20
2022-09-26T11:36:41.772Z,13.10
2022-09-26T11:39:27.197Z,13.10
2022-09-26T11:42:13.659Z,13.10
2022-09-26T11:44:54.348Z,13.00
2022-09-26T11:48:05.935Z,13.00
2022-09-26T11:50:48.446Z,12.90
2022-09-26T11:53:49.940Z,12.90
2022-09-26T11:56:35.203Z,12.80
2022-09-26T11:59:21.204Z,12.70
2022-09-26T12:01:55.871Z,12.70
2022-09-26T12:04:50.913Z,12.70
2022-09-26T12:07:23.790Z,12.70
2022-09-26T12:10:10.575Z,12.80
2022-09-26T12:12:49.646Z,12.80
2022-09-26T12:15:23.845Z,12.90
2022-09-26T12:18:06.382Z,13.00
2022-09-26T12:20:42.427Z,13.00
2022-09-26T12:23:20.453Z,13.10
2022-09-26T12:26:01.310Z,13.10
2022-09-26T12:28:52.389Z,13.10
2022-09-26T12:31:32.088Z,13.00
2022-09-26T12:34:19.114Z,13.00
2022-09-26T12:37:03.074Z,13.00
2022-09-26T12:39:50.703Z,12.90
2022-09-26T12:42:37.973Z,12.90
2022-09-26T12:45:29.419Z,12.90
2022-09-26T12:48:22.101Z,12.90
2022-09-26T12:51:02.482Z,12.80
2022-09-26T12:54:02.809Z,12.80
2022-09-26T12:56:46.147Z,12.70
2022-09-26T12:59:36.477Z,12.70
2022-09-26T13:02:34.359Z,12.70
2022-09-26T13:05:27.420Z,12.60
2022-09-26T13:08:05.140Z,12.60
2022-09-26T13:10:50.815Z,12.60
2022-09-26T13:14:13.237Z,12.50
2022-09-26T13:16:53.726Z,12.50
2022-09-26T13:19:28.047Z,12.50
2022-09-26T13:22:01.752Z,12.50
2022-09-26T13:24:35.994Z,12.40
2022-09-26T13:27:13.262Z,12.40
2022-09-26T13:29:46.234Z,12.40
2022-09-26T13:32:22.912Z,12.40
2022-09-26T13:34:56.011Z,12.50
2022-09-26T13:37:36.377Z,12.50
2022-09-26T13:40:22.395Z,12.60
2022-09-26T13:43:02.979Z,12.60
2022-09-26T13:45:46.776Z,12.50
2022-09-26T13:48:25.369Z,12.70
2022-09-26T13:51:03.181Z,12.70
2022-09-26T13:53:37.950Z,12.80
2022-09-26T13:56:41.278Z,12.80
2022-09-26T13:59:27.445Z,12.90
2022-09-26T14:02:29.809Z,12.90
2022-09-26T14:05:29.407Z,13.10
2022-09-26T14:08:14.872Z,13.10
2022-09-26T14:10:53.084Z,13.10
2022-09-26T14:13:34.721Z,13.10
2022-09-26T14:16:05.901Z,13.10
2022-09-26T14:18:54.946Z,13.10
2022-09-26T14:21:35.570Z,13.20
2022-09-26T14:24:34.707Z,13.20
2022-09-26T14:27:42.961Z,13.20
2022-09-26T14:30:33.463Z,13.30
2022-09-26T14:33:06.353Z,13.20
2022-09-26T14:35:38.474Z,13.20
2022-09-26T14:38:17.135Z,13.20
2022-09-26T14:40:54.761Z,13.20
2022-09-26T14:43:25.959Z,13.30
2022-09-26T14:46:03.558Z,13.30
2022-09-26T14:48:37.264Z,13.30
2022-09-26T14:51:20.776Z,13.30
2022-09-26T14:53:57.058Z,13.30
2022-09-26T14:56:44.271Z,13.30
2022-09-26T14:59:40.176Z,13.30
2022-09-26T15:02:40.258Z,13.30
2022-09-26T15:05:25.143Z,13.20
2022-09-26T15:07:55.145Z,13.20
2022-09-26T15:10:27.086Z,13.10
2022-09-26T15:13:04.855Z,13.10
2022-09-26T15:15:51.472Z,13.00
2022-09-26T15:18:30.814Z,13.00
2022-09-26T15:21:07.007Z,12.90
2022-09-26T15:23:45.456Z,12.80
2022-09-26T15:26:15.130Z,12.70
2022-09-26T15:28:43.368Z,12.60
2022-09-26T15:31:30.390Z,12.50
2022-09-26T15:34:04.373Z,12.40
2022-09-26T15:36:36.502Z,12.30
2022-09-26T15:39:38.580Z,12.30
2022-09-26T15:42:42.074Z,12.20
2022-09-26T15:45:25.536Z,12.20
2022-09-26T15:47:54.340Z,12.10
2022-09-26T15:50:26.215Z,12.10
2022-09-26T15:53:00.172Z,12.10
2022-09-26T15:55:33.508Z,12.00
2022-09-26T15:58:05.380Z,12.00
2022-09-26T16:00:36.922Z,11.90
2022-09-26T16:03:42.359Z,11.90
2022-09-26T16:06:24.047Z,11.90
2022-09-26T16:08:58.317Z,11.90
2022-09-26T16:11:26.908Z,11.90
2022-09-26T16:13:56.682Z,11.90
2022-09-26T16:16:32.074Z,11.90
2022-09-26T16:19:03.529Z,11.90
2022-09-26T16:21:34.189Z,11.90
2022-09-26T16:24:28.025Z,11.70
2022-09-26T16:26:57.154Z,11.90
2022-09-26T16:29:32.906Z,11.90
2022-09-26T16:32:01.703Z,11.90
2022-09-26T16:34:30.417Z,11.90
2022-09-26T16:36:59.151Z,11.90
2022-09-26T16:39:30.346Z,11.80
2022-09-26T16:42:02.664Z,11.80
2022-09-26T16:44:36.699Z,11.80
2022-09-26T16:47:26.618Z,11.70
2022-09-26T16:49:54.973Z,11.70
2022-09-26T16:52:28.250Z,11.60
2022-09-26T16:54:59.261Z,11.60
2022-09-26T16:57:30.103Z,11.50
2022-09-26T17:00:19.738Z,11.50
2022-09-26T17:02:48.077Z,11.50
2022-09-26T17:05:19.414Z,11.50
2022-09-26T17:07:48.900Z,11.40
2022-09-26T17:10:20.531Z,11.40
2022-09-26T17:12:51.428Z,11.40
2022-09-26T17:15:25.334Z,11.30
2022-09-26T17:17:54.242Z,11.30
2022-09-26T17:20:23.652Z,11.30
2022-09-26T17:22:52.242Z,11.20
2022-09-26T17:25:24.971Z,11.20
2022-09-26T17:27:57.679Z,11.20
2022-09-26T17:30:25.966Z,11.10
2022-09-26T17:32:54.834Z,11.10
2022-09-26T17:35:27.768Z,11.00
2022-09-26T17:37:56.519Z,11.00
2022-09-26T17:40:29.532Z,10.90
2022-09-26T17:43:00.211Z,10.90
2022-09-26T17:45:33.290Z,10.90
2022-09-26T17:48:04.965Z,10.90
2022-09-26T17:50:35.344Z,10.80
2022-09-26T17:53:04.085Z,10.80
2022-09-26T17:55:33.808Z,10.80
2022-09-26T17:58:02.376Z,10.80
2022-09-26T18:00:38.820Z,10.70
2022-09-26T18:03:13.579Z,10.70
2022-09-26T18:05:45.777Z,10.70
2022-09-26T18:08:20.397Z,10.70
2022-09-26T18:10:54.089Z,10.60
2022-09-26T18:13:25.253Z,10.60
2022-09-26T18:15:54.735Z,10.60
2022-09-26T18:18:25.662Z,10.60
2022-09-26T18:20:57.570Z,10.50
2022-09-26T18:23:29.476Z,10.50
2022-09-26T18:26:00.482Z,10.50
2022-09-26T18:28:29.062Z,10.50
2022-09-26T18:31:00.911Z,10.50
2022-09-26T18:33:29.587Z,10.50
2022-09-26T18:35:58.907Z,10.50
2022-09-26T18:38:30.248Z,10.50
2022-09-26T18:41:00.370Z,10.50
2022-09-26T18:43:31.948Z,10.50
2022-09-26T18:46:01.628Z,10.50
2022-09-26T18:48:33.889Z,10.50
2022-09-26T18:51:03.510Z,10.40
2022-09-26T18:53:37.186Z,10.40
2022-09-26T18:56:24.487Z,10.40
2022-09-26T18:58:53.158Z,10.40
2022-09-26T19:01:28.712Z,10.40
2022-09-26T19:03:59.617Z,10.40
2022-09-26T19:06:31.940Z,10.40
2022-09-26T19:09:02.973Z,10.40
2022-09-26T19:11:36.377Z,10.30
2022-09-26T19:14:13.845Z,10.30
2022-09-26T19:16:42.210Z,10.30
2022-09-26T19:19:10.582Z,10.30
2022-09-26T19:21:41.316Z,10.30
2022-09-26T19:24:20.545Z,10.30
2022-09-26T19:26:53.150Z,10.30
2022-09-26T19:29:28.681Z,10.30
2022-09-26T19:31:57.185Z,10.30
2022-09-26T19:34:28.201Z,10.30
2022-09-26T19:37:01.315Z,10.30
2022-09-26T19:39:29.686Z,10.20
2022-09-26T19:41:59.352Z,10.20
2022-09-26T19:44:27.638Z,10.20
2022-09-26T19:46:56.333Z,10.20
2022-09-26T19:49:26.471Z,10.20
2022-09-26T19:51:54.634Z,10.20
2022-09-26T19:54:23.339Z,10.20
2022-09-26T19:56:51.602Z,10.20
2022-09-26T19:59:25.368Z,10.20
2022-09-26T20:01:56.194Z,10.20
2022-09-26T20:04:25.321Z,10.20
2022-09-26T20:06:53.653Z,10.20
2022-09-26T20:09:22.211Z,10.20
2022-09-26T20:11:50.546Z,10.20
2022-09-26T20:14:26.257Z,10.20
2022-09-26T20:16:57.548Z,10.20
2022-09-26T20:19:41.277Z,10.20
2022-09-26T20:22:15.405Z,10.20
2022-09-26T20:24:44.318Z,10.20
2022-09-26T20:27:19.092Z,10.20
2022-09-26T20:30:07.613Z,10.20
2022-09-26T20:32:38.051Z,10.20
2022-09-26T20:35:07.135Z,10.20
2022-09-26T20:37:39.926Z,10.20
2022-09-26T20:40:14.296Z,10.20
2022-09-26T20:42:45.284Z,10.20
2022-09-26T20:45:19.452Z,10.20
2022-09-26T20:47:50.706Z,10.20
2022-09-26T20:50:20.498Z,10.20
2022-09-26T20:52:48.759Z,10.20
2022-09-26T20:55:18.175Z,10.20
2022-09-26T20:57:48.087Z,10.20
2022-09-26T21:00:19.648Z,10.20
2022-09-26T21:02:52.386Z,10.20
2022-09-26T21:05:24.393Z,10.20
2022-09-26T21:07:53.532Z,10.20
2022-09-26T21:10:23.650Z,10.20
2022-09-26T21:12:52.995Z,10.20
2022-09-26T21:15:23.705Z,10.20
2022-09-26T21:17:53.976Z,10.20
2022-09-26T21:20:26.123Z,10.20
2022-09-26T21:22:55.249Z,10.20
2022-09-26T21:25:25.475Z,10.20
2022-09-26T21:27:56.939Z,10.20
2022-09-26T21:30:26.508Z,10.20
2022-09-26T21:32:57.556Z,10.20
2022-09-26T21:35:28.590Z,10.20
2022-09-26T21:37:58.707Z,10.20
2022-09-26T21:40:29.734Z,10.30
2022-09-26T21:43:01.589Z,10.30
2022-09-26T21:45:31.283Z,10.30
2022-09-26T21:47:59.575Z,10.30
2022-09-26T21:50:29.543Z,10.30
2022-09-26T21:53:04.568Z,10.30
2022-09-26T21:55:37.269Z,10.20
2022-09-26T21:58:09.942Z,10.20
2022-09-26T22:00:39.617Z,10.20
2022-09-26T22:03:07.751Z,10.20
2022-09-26T22:05:35.971Z,10.20
2022-09-26T22:08:04.691Z,10.30
2022-09-26T22:10:32.927Z,10.20
2022-09-26T22:13:01.150Z,10.20
2022-09-26T22:15:29.677Z,10.20
2022-09-26T22:17:59.207Z,10.30
2022-09-26T22:20:27.514Z,10.30
2022-09-26T22:22:55.841Z,10.20
2022-09-26T22:25:24.046Z,10.20
2022-09-26T22:27:52.283Z,10.20
2022-09-26T22:30:20.469Z,10.20
2022-09-26T22:32:48.642Z,10.20
2022-09-26T22:35:18.554Z,10.20
2022-09-26T22:37:46.721Z,10.20
2022-09-26T22:40:14.940Z,10.20
2022-09-26T22:42:43.122Z,10.20
2022-09-26T22:45:12.229Z,10.20
2022-09-26T22:47:40.329Z,10.20
2022-09-26T22:50:09.082Z,10.20
2022-09-26T22:52:38.620Z,10.20
2022-09-26T22:55:08.261Z,10.20
2022-09-26T22:57:36.458Z,10.20
2022-09-26T23:00:05.753Z,10.20
2022-09-26T23:02:34.005Z,10.30
2022-09-26T23:05:02.162Z,10.30
2022-09-26T23:07:31.517Z,10.30
2022-09-26T23:10:01.338Z,10.30
2022-09-26T23:12:31.635Z,10.20
2022-09-26T23:14:59.820Z,10.20
2022-09-26T23:17:28.254Z,10.20
2022-09-26T23:19:56.565Z,10.20
2022-09-26T23:22:24.649Z,10.20
2022-09-26T23:24:52.777Z,10.10
2022-09-26T23:27:22.288Z,10.20
2022-09-26T23:29:50.504Z,10.10
2022-09-26T23:32:18.653Z,10.10
2022-09-26T23:34:46.801Z,10.10
2022-09-26T23:37:14.950Z,10.10
2022-09-26T23:39:43.126Z,10.10
2022-09-26T23:42:11.519Z,10.10
2022-09-26T23:44:41.057Z,10.10
2022-09-26T23:47:09.191Z,10.10
2022-09-26T23:49:37.406Z,10.10
2022-09-26T23:52:05.595Z,10.10
2022-09-26T23:54:33.704Z,10.10
2022-09-26T23:57:02.016Z,10.10
2022-09-26T23:59:30.127Z,10.10
